Hlavní strana
METAR-TAF:

METAR-TAF

Letiště :

Røros, Norsko

zeměpisná šířka: 62-35N, zeměpisná délka: 011-21E, výška: 626 m

Aktuální stav počasí

Zpráva byla vytvořena před 17 minutami, v 03:50 UTC
vítr z různých směrů 1 kt
Teplota -20°C
Vlhkost vzduchu 84%
Tlak 992 hPa
Viditelnost: 9000 m

METAR: ENRO 160350Z AUTO VRB01KT 9000NDV OVC002/// M20/M22 Q0992

Čas: 05:07 (04:07 UTC)

Předpověď počasí

Zpráva byla vytvořena před 17 hodinami a 7 minutami, v 11:00 UTC
Předpověď platná od 15 v 12 UTC do 15 v 19 UTC
vítr z různých směrů 5 kt
Viditelnost: 9000 m
Oblačno až skoro zataženo ve výšce 2000 ft
slabé sněžení
Dočasný
od 15 v 12 UTC do 15 v 15 UTC
Viditelnost: 4000 m
slabé sněžení

TAF: ENRO 151100Z 1512/1519 VRB05KT 9000 -SN BKN020 TEMPO 1512/1515 4000 -SN

Stav a předpovědi počasí z více než 4 000 letišť (zprávy METAR a TAF).

Červené a žluté tečky na mapě představují dostupné meteorologické stanice.

Když kurzor umístíte na tečku, zobrazí se název stanice.

Pak kliknutím zobrazíte stav a předpověď počasí.

Chcete-li změnit mapu, kliknutím na zelené tlačítko se znaménkem +mapu přiblížíte, kliknutím na zelené tlačítko se znaménkem – mapu oddálíte a kliknutím na zelené šipky přejdete na sousední mapy.


METAR-TAF: